Time;durP1;ratioP1;P1;durP2;ratioP2;P2;SDS_P1;SDS_P2;PMS_P1;PMS_P2;Temp;Humidity;BMP_temperature;BMP_pressure;BME280_temperature;BME280_humidity;BME280_pressure;Samples;Min_cycle;Max_cycle;Signal;HPM_P1;HPM_P2
2021/04/05 00:02:13;;;;;;;26.87;15.07;;;;;;;;;;5090538;28;20180;-69
2021/04/05 00:04:38;;;;;;;32.50;16.27;;;;;;;;;;5088539;28;20179;-68
2021/04/05 00:07:04;;;;;;;26.03;14.93;;;;;;;;;;5086943;28;20252;-71
2021/04/05 00:09:29;;;;;;;26.03;16.23;;;;;;;;;;5077453;28;20607;-69
2021/04/05 00:11:54;;;;;;;28.77;14.20;;;;;;;;;;5085996;28;20192;-69
2021/04/05 00:14:20;;;;;;;28.63;15.63;;;;;;;;;;5073599;28;20201;-69
2021/04/05 00:16:46;;;;;;;29.43;15.73;;;;;;;;;;5085426;28;20176;-69
2021/04/05 00:19:11;;;;;;;34.67;17.50;;;;;;;;;;5084250;28;20262;-69
2021/04/05 00:21:36;;;;;;;24.80;15.63;;;;;;;;;;5084318;28;20192;-68
2021/04/05 00:24:01;;;;;;;35.07;15.77;;;;;;;;;;5094880;28;20244;-69
2021/04/05 00:26:27;;;;;;;31.53;14.70;;;;;;;;;;5086892;28;20225;-69
2021/04/05 00:28:52;;;;;;;36.00;16.40;;;;;;;;;;5083919;28;20238;-69
2021/04/05 00:31:17;;;;;;;34.73;16.23;;;;;;;;;;5083689;28;20737;-69
2021/04/05 00:33:42;;;;;;;35.47;16.20;;;;;;;;;;5089270;28;20717;-69
2021/04/05 00:36:08;;;;;;;28.80;14.57;;;;;;;;;;5090571;28;20180;-69
2021/04/05 00:38:33;;;;;;;25.53;14.60;;;;;;;;;;5080782;28;20606;-69
2021/04/05 00:41:04;;;;;;;33.73;16.40;;;;;;;;;;5083484;28;20237;-68
2021/04/05 00:43:30;;;;;;;30.70;16.03;;;;;;;;;;5080355;28;20202;-68
2021/04/05 00:45:55;;;;;;;30.73;16.70;;;;;;;;;;5085391;28;20189;-68
2021/04/05 00:48:23;;;;;;;33.63;15.53;;;;;;;;;;5087797;28;20215;-69
2021/04/05 00:50:58;;;;;;;34.63;16.77;;;;;;;;;;5087164;28;20204;-69
2021/04/05 00:53:37;;;;;;;34.47;15.80;;;;;;;;;;5085010;28;20187;-69
2021/04/05 00:56:02;;;;;;;39.23;17.03;;;;;;;;;;5082649;28;20185;-69
2021/04/05 00:58:28;;;;;;;36.07;17.00;;;;;;;;;;5079713;28;20223;-69
2021/04/05 01:00:55;;;;;;;32.83;18.43;;;;;;;;;;5086259;28;20241;-69
2021/04/05 01:03:22;;;;;;;33.30;16.30;;;;;;;;;;5087483;28;20558;-69
2021/04/05 01:05:49;;;;;;;36.03;17.43;;;;;;;;;;5083075;28;20184;-68
2021/04/05 01:08:16;;;;;;;34.10;16.93;;;;;;;;;;5085101;28;20199;-69
2021/04/05 01:10:41;;;;;;;36.43;16.90;;;;;;;;;;5080484;28;20199;-68
2021/04/05 01:13:07;;;;;;;33.40;18.13;;;;;;;;;;5081923;28;20176;-69
2021/04/05 01:15:32;;;;;;;34.23;18.03;;;;;;;;;;5082072;28;20177;-68
2021/04/05 01:17:57;;;;;;;36.73;16.67;;;;;;;;;;5083297;28;20764;-69
2021/04/05 01:20:23;;;;;;;41.03;18.20;;;;;;;;;;5083050;28;20192;-68
2021/04/05 01:22:50;;;;;;;39.90;18.40;;;;;;;;;;5086473;28;20180;-69
2021/04/05 01:25:16;;;;;;;33.77;19.50;;;;;;;;;;5081541;28;20200;-69
2021/04/05 01:27:41;;;;;;;36.13;17.50;;;;;;;;;;5085361;28;20207;-69
2021/04/05 01:30:12;;;;;;;44.63;20.03;;;;;;;;;;5082356;28;20204;-68
2021/04/05 01:32:37;;;;;;;32.10;16.83;;;;;;;;;;5086585;28;20184;-69
2021/04/05 01:35:03;;;;;;;38.40;19.20;;;;;;;;;;5081846;28;20688;-69
2021/04/05 01:37:28;;;;;;;40.43;18.57;;;;;;;;;;5084711;28;20294;-69
2021/04/05 01:39:53;;;;;;;48.23;20.83;;;;;;;;;;5082821;28;20172;-68
2021/04/05 01:42:18;;;;;;;36.70;20.17;;;;;;;;;;5080647;28;20181;-69
2021/04/05 01:44:43;;;;;;;42.93;19.10;;;;;;;;;;5086174;28;20176;-68
2021/04/05 01:47:10;;;;;;;42.27;18.33;;;;;;;;;;5082920;28;20168;-69
2021/04/05 01:49:37;;;;;;;42.93;20.40;;;;;;;;;;5082586;28;20184;-69
2021/04/05 01:52:02;;;;;;;36.53;19.17;;;;;;;;;;5076309;28;20204;-68
2021/04/05 01:54:31;;;;;;;39.70;19.80;;;;;;;;;;5088342;28;20180;-68
2021/04/05 01:56:57;;;;;;;37.53;18.40;;;;;;;;;;5081810;28;20183;-69
2021/04/05 01:59:22;;;;;;;43.40;19.70;;;;;;;;;;5085043;28;20176;-69
2021/04/05 02:01:47;;;;;;;44.20;19.73;;;;;;;;;;5085817;28;20211;-68
2021/04/05 02:04:12;;;;;;;36.73;18.93;;;;;;;;;;5078461;28;20197;-69
2021/04/05 02:06:37;;;;;;;35.43;18.23;;;;;;;;;;5079746;28;20173;-69
2021/04/05 02:09:04;;;;;;;34.70;16.73;;;;;;;;;;5089314;28;20702;-69
2021/04/05 02:11:33;;;;;;;41.67;17.10;;;;;;;;;;5085186;28;20206;-68
2021/04/05 02:13:58;;;;;;;34.00;14.67;;;;;;;;;;5087154;28;20180;-68
2021/04/05 02:16:24;;;;;;;40.13;15.40;;;;;;;;;;5081967;28;20509;-69
2021/04/05 02:18:50;;;;;;;32.37;11.07;;;;;;;;;;5088067;28;20214;-69
2021/04/05 02:21:16;;;;;;;22.57;11.27;;;;;;;;;;5083060;28;20287;-69
2021/04/05 02:23:42;;;;;;;19.13;9.00;;;;;;;;;;5079862;28;20185;-69
2021/04/05 02:26:07;;;;;;;17.63;9.37;;;;;;;;;;5091143;28;20174;-68
2021/04/05 02:28:43;;;;;;;16.80;7.90;;;;;;;;;;5088081;28;20653;-68
2021/04/05 02:31:09;;;;;;;17.10;8.63;;;;;;;;;;5087240;28;20200;-69
2021/04/05 02:33:35;;;;;;;19.47;8.63;;;;;;;;;;5091587;28;20180;-69
2021/04/05 02:36:01;;;;;;;16.57;9.10;;;;;;;;;;5090883;28;20669;-69
2021/04/05 02:38:26;;;;;;;19.87;8.60;;;;;;;;;;5082412;28;20246;-69
2021/04/05 02:40:51;;;;;;;16.93;8.27;;;;;;;;;;5084628;28;20196;-69
2021/04/05 02:43:17;;;;;;;20.20;8.03;;;;;;;;;;5088393;28;20176;-69
2021/04/05 02:45:42;;;;;;;17.67;8.53;;;;;;;;;;5085743;28;20520;-68
2021/04/05 02:48:09;;;;;;;17.33;9.00;;;;;;;;;;5080034;28;20173;-69
2021/04/05 02:50:34;;;;;;;13.17;8.17;;;;;;;;;;5083408;28;20204;-69
2021/04/05 02:53:03;;;;;;;13.60;7.27;;;;;;;;;;5085120;28;20626;-69
2021/04/05 02:55:29;;;;;;;16.70;8.13;;;;;;;;;;5084863;28;20173;-69
2021/04/05 02:57:54;;;;;;;15.30;8.03;;;;;;;;;;5076646;28;20903;-69
2021/04/05 03:00:19;;;;;;;16.17;8.83;;;;;;;;;;5086214;28;20603;-69
2021/04/05 03:02:48;;;;;;;13.57;8.23;;;;;;;;;;5085771;28;20177;-69
2021/04/05 03:05:16;;;;;;;16.73;8.00;;;;;;;;;;5091616;28;20180;-69
2021/04/05 03:07:42;;;;;;;18.30;8.60;;;;;;;;;;5085356;28;20195;-70
2021/04/05 03:10:09;;;;;;;15.80;7.90;;;;;;;;;;5083838;28;20226;-69
2021/04/05 03:12:35;;;;;;;12.90;7.63;;;;;;;;;;5090779;28;20730;-70
2021/04/05 03:15:01;;;;;;;15.13;8.53;;;;;;;;;;5083758;28;20564;-69
2021/04/05 03:17:27;;;;;;;19.20;8.90;;;;;;;;;;5081141;28;20665;-69
2021/04/05 03:19:53;;;;;;;12.47;8.07;;;;;;;;;;5078995;28;20662;-68
2021/04/05 03:22:18;;;;;;;12.27;7.57;;;;;;;;;;5079904;28;20180;-69
2021/04/05 03:24:44;;;;;;;18.67;9.47;;;;;;;;;;5088010;28;20181;-70
2021/04/05 03:27:10;;;;;;;13.33;8.13;;;;;;;;;;5085989;28;20176;-69
2021/04/05 03:29:35;;;;;;;16.60;8.20;;;;;;;;;;5081971;28;20683;-70
2021/04/05 03:32:01;;;;;;;16.67;8.23;;;;;;;;;;5085334;28;20720;-70
2021/04/05 03:34:27;;;;;;;17.60;8.30;;;;;;;;;;5082845;28;20363;-68
2021/04/05 03:37:07;;;;;;;13.90;7.87;;;;;;;;;;5085961;28;20259;-70
2021/04/05 03:39:33;;;;;;;18.30;8.47;;;;;;;;;;5078368;28;20184;-69
2021/04/05 03:41:58;;;;;;;15.27;7.80;;;;;;;;;;5081537;28;20205;-68
2021/04/05 03:44:42;;;;;;;19.33;8.03;;;;;;;;;;5082256;28;20674;-69
2021/04/05 03:47:26;;;;;;;14.30;8.17;;;;;;;;;;5089919;28;20230;-69
2021/04/05 03:50:14;;;;;;;12.20;7.53;;;;;;;;;;5083670;28;20647;-69
2021/04/05 03:52:44;;;;;;;15.70;8.23;;;;;;;;;;5085896;28;20191;-70
2021/04/05 03:55:10;;;;;;;12.27;7.17;;;;;;;;;;5088140;28;20685;-70
2021/04/05 03:57:37;;;;;;;18.23;9.00;;;;;;;;;;5081037;28;20204;-69
2021/04/05 04:00:08;;;;;;;15.93;7.83;;;;;;;;;;5085207;28;20184;-69
2021/04/05 04:02:37;;;;;;;18.00;8.63;;;;;;;;;;5087482;28;20589;-69
2021/04/05 04:05:08;;;;;;;11.70;7.37;;;;;;;;;;5084555;28;20633;-69
2021/04/05 04:07:40;;;;;;;18.60;8.97;;;;;;;;;;5089586;28;20184;-68
2021/04/05 04:10:09;;;;;;;13.67;7.80;;;;;;;;;;5089047;28;20229;-69
2021/04/05 04:12:35;;;;;;;18.97;9.10;;;;;;;;;;5090111;28;20223;-69
2021/04/05 04:15:01;;;;;;;19.37;8.53;;;;;;;;;;5079494;28;20208;-69
2021/04/05 04:17:27;;;;;;;14.40;7.93;;;;;;;;;;5087098;28;20219;-69
2021/04/05 04:19:53;;;;;;;14.33;8.83;;;;;;;;;;5081511;28;20181;-70
2021/04/05 04:22:18;;;;;;;18.20;8.23;;;;;;;;;;5086422;28;20172;-69
2021/04/05 04:24:43;;;;;;;14.43;8.13;;;;;;;;;;5076715;28;20214;-69
2021/04/05 04:27:13;;;;;;;13.13;8.80;;;;;;;;;;5084078;28;20175;-70
2021/04/05 04:29:38;;;;;;;19.70;9.20;;;;;;;;;;5076916;28;20203;-69
2021/04/05 04:32:03;;;;;;;12.57;7.50;;;;;;;;;;5080877;28;20206;-69
2021/04/05 04:34:28;;;;;;;19.97;8.97;;;;;;;;;;5090073;28;20535;-69
2021/04/05 04:37:00;;;;;;;12.97;9.20;;;;;;;;;;5092562;28;20668;-69
2021/04/05 04:39:25;;;;;;;17.93;8.77;;;;;;;;;;5085571;28;20180;-69
2021/04/05 04:41:51;;;;;;;16.40;8.27;;;;;;;;;;5084119;28;20207;-69
2021/04/05 04:44:16;;;;;;;13.70;8.07;;;;;;;;;;5079367;28;20280;-70
2021/04/05 04:46:41;;;;;;;20.93;8.60;;;;;;;;;;5088574;28;20191;-69
2021/04/05 04:49:07;;;;;;;15.97;7.70;;;;;;;;;;5085222;28;20177;-69
2021/04/05 04:51:33;;;;;;;16.03;8.37;;;;;;;;;;5080612;28;20209;-69
2021/04/05 04:53:59;;;;;;;18.03;8.23;;;;;;;;;;5088655;28;20197;-69
2021/04/05 04:56:24;;;;;;;14.30;7.67;;;;;;;;;;5081127;28;20225;-68
2021/04/05 04:58:50;;;;;;;17.10;7.27;;;;;;;;;;5086395;28;20586;-69
2021/04/05 05:01:16;;;;;;;13.27;7.67;;;;;;;;;;5088581;28;20189;-70
2021/04/05 05:03:44;;;;;;;17.03;7.80;;;;;;;;;;5075630;28;20168;-69
2021/04/05 05:06:09;;;;;;;9.97;6.77;;;;;;;;;;5081422;28;20177;-69
2021/04/05 05:08:34;;;;;;;16.63;7.13;;;;;;;;;;5081019;28;20181;-69
2021/04/05 05:10:59;;;;;;;13.57;7.93;;;;;;;;;;5083117;28;20201;-68
2021/04/05 05:13:25;;;;;;;15.83;7.17;;;;;;;;;;5077231;28;20210;-68
2021/04/05 05:15:51;;;;;;;14.00;7.17;;;;;;;;;;5083152;28;20696;-68
2021/04/05 05:18:16;;;;;;;6.30;3.83;;;;;;;;;;5083792;28;20225;-68
2021/04/05 05:20:42;;;;;;;5.43;2.97;;;;;;;;;;5083777;28;20223;-68
2021/04/05 05:23:08;;;;;;;2.37;1.10;;;;;;;;;;5087768;28;20173;-70
2021/04/05 05:25:33;;;;;;;5.03;1.23;;;;;;;;;;5085735;28;20176;-70
2021/04/05 05:28:03;;;;;;;4.07;1.10;;;;;;;;;;5083615;28;20195;-68
2021/04/05 05:30:29;;;;;;;4.77;1.40;;;;;;;;;;5086495;28;20196;-69
2021/04/05 05:32:55;;;;;;;7.97;1.53;;;;;;;;;;5087978;28;20669;-68
2021/04/05 05:35:21;;;;;;;9.17;1.70;;;;;;;;;;5081954;28;20192;-68
2021/04/05 05:37:46;;;;;;;6.73;1.40;;;;;;;;;;5080658;28;20208;-68
2021/04/05 05:40:15;;;;;;;7.30;1.60;;;;;;;;;;5086452;28;20207;-69
2021/04/05 05:42:59;;;;;;;4.83;1.80;;;;;;;;;;5084653;28;20650;-69
2021/04/05 05:45:32;;;;;;;7.43;1.93;;;;;;;;;;5083264;28;20698;-67
2021/04/05 05:48:03;;;;;;;6.83;1.67;;;;;;;;;;5079805;28;20199;-68
2021/04/05 05:50:31;;;;;;;13.50;2.73;;;;;;;;;;5089879;28;20211;-68
2021/04/05 05:53:12;;;;;;;7.40;1.73;;;;;;;;;;5087712;28;20184;-68
2021/04/05 05:55:58;;;;;;;8.90;2.00;;;;;;;;;;5090030;28;20257;-68
2021/04/05 05:58:42;;;;;;;8.27;2.03;;;;;;;;;;5078970;28;20600;-68
2021/04/05 06:01:07;;;;;;;8.20;2.10;;;;;;;;;;5084755;28;20741;-68
2021/04/05 06:03:34;;;;;;;9.25;2.55;;;;;;;;;;5081017;28;20172;-67
2021/04/05 06:06:11;;;;;;;14.10;3.90;;;;;;;;;;5075683;28;20176;-68
2021/04/05 06:08:42;;;;;;;10.10;2.23;;;;;;;;;;5080150;28;20196;-67
2021/04/05 06:11:20;;;;;;;6.97;1.97;;;;;;;;;;5080799;28;20562;-68
2021/04/05 06:13:48;;;;;;;10.37;2.80;;;;;;;;;;5083673;28;20270;-68
2021/04/05 06:16:25;;;;;;;9.97;2.77;;;;;;;;;;5077780;28;20568;-67
2021/04/05 06:18:59;;;;;;;11.27;2.27;;;;;;;;;;5083981;28;20196;-68
2021/04/05 06:21:43;;;;;;;10.80;2.53;;;;;;;;;;5081362;28;20699;-67
2021/04/05 06:24:10;;;;;;;8.97;2.30;;;;;;;;;;5081571;28;20174;-68
2021/04/05 06:26:46;;;;;;;10.53;2.40;;;;;;;;;;5084057;28;20609;-67
2021/04/05 06:29:29;;;;;;;7.13;2.10;;;;;;;;;;5077203;28;20199;-67
2021/04/05 06:32:15;;;;;;;10.13;2.27;;;;;;;;;;5083403;28;20196;-70
2021/04/05 06:34:59;;;;;;;6.13;2.80;;;;;;;;;;5082362;28;20186;-69
2021/04/05 06:37:26;;;;;;;6.50;1.90;;;;;;;;;;5077816;28;20196;-67
2021/04/05 06:39:54;;;;;;;7.93;2.00;;;;;;;;;;5093004;28;20550;-67
2021/04/05 06:42:31;;;;;;;5.53;2.60;;;;;;;;;;5085474;28;20180;-67
2021/04/05 06:44:56;;;;;;;11.07;1.97;;;;;;;;;;5084036;28;20226;-67
2021/04/05 06:47:32;;;;;;;8.23;1.08;;;;;;;;;;5090520;28;20180;-67
2021/04/05 06:50:04;;;;;;;4.00;0.70;;;;;;;;;;5081760;28;20196;-67
2021/04/05 06:52:57;;;;;;;2.63;0.60;;;;;;;;;;5075151;28;20530;-67
2021/04/05 06:55:28;;;;;;;3.67;1.03;;;;;;;;;;5090332;28;20185;-67
2021/04/05 06:57:59;;;;;;;4.33;1.13;;;;;;;;;;5085913;28;20207;-67
2021/04/05 07:00:30;;;;;;;11.03;1.70;;;;;;;;;;5076845;28;20206;-68
2021/04/05 07:03:11;;;;;;;12.77;1.60;;;;;;;;;;5082963;28;20653;-68
2021/04/05 07:05:46;;;;;;;11.17;2.10;;;;;;;;;;5088053;28;20176;-68
2021/04/05 07:08:30;;;;;;;11.30;3.13;;;;;;;;;;5083829;28;20186;-68
2021/04/05 07:11:11;;;;;;;13.07;3.43;;;;;;;;;;5090131;28;20218;-68
2021/04/05 07:13:48;;;;;;;5.77;1.90;;;;;;;;;;5090200;28;20202;-68
2021/04/05 07:16:29;;;;;;;16.33;2.53;;;;;;;;;;5081080;28;20179;-66
2021/04/05 07:19:13;;;;;;;12.97;3.93;;;;;;;;;;5082988;28;20209;-70
2021/04/05 07:21:59;;;;;;;15.73;2.27;;;;;;;;;;5093577;28;20240;-68
2021/04/05 07:24:29;;;;;;;9.90;2.43;;;;;;;;;;5087404;28;20173;-68
2021/04/05 07:27:04;;;;;;;15.53;4.90;;;;;;;;;;5089383;28;20545;-69
2021/04/05 07:29:35;;;;;;;16.17;3.07;;;;;;;;;;5086352;28;20233;-68
2021/04/05 07:32:14;;;;;;;11.43;3.13;;;;;;;;;;5084927;28;20204;-68
2021/04/05 07:34:40;;;;;;;21.33;3.13;;;;;;;;;;5087046;28;20184;-68
2021/04/05 07:37:23;;;;;;;14.53;3.13;;;;;;;;;;5086954;28;20225;-67
2021/04/05 07:39:59;;;;;;;10.03;2.70;;;;;;;;;;5089501;28;20234;-69
2021/04/05 07:42:33;;;;;;;18.40;3.90;;;;;;;;;;5088643;28;20168;-69
2021/04/05 07:45:10;;;;;;;8.73;3.03;;;;;;;;;;5085426;28;20179;-69
2021/04/05 07:47:35;;;;;;;17.97;4.20;;;;;;;;;;5091158;28;20306;-69
2021/04/05 07:50:19;;;;;;;15.97;3.37;;;;;;;;;;5086397;28;20768;-69
2021/04/05 07:52:47;;;;;;;10.27;2.67;;;;;;;;;;5089026;28;20176;-69
2021/04/05 07:55:13;;;;;;;11.77;2.57;;;;;;;;;;5090388;28;20201;-69
2021/04/05 07:57:57;;;;;;;19.13;3.23;;;;;;;;;;5092535;28;20642;-68
2021/04/05 08:00:28;;;;;;;20.30;2.60;;;;;;;;;;5088213;28;20192;-68
2021/04/05 08:03:02;;;;;;;13.63;2.83;;;;;;;;;;5089346;28;20173;-68
2021/04/05 08:05:40;;;;;;;10.03;3.10;;;;;;;;;;5089432;28;20220;-69
2021/04/05 08:08:25;;;;;;;11.93;3.17;;;;;;;;;;5087082;28;20267;-70
2021/04/05 08:11:09;;;;;;;6.40;1.77;;;;;;;;;;5092745;28;20692;-69
2021/04/05 08:13:45;;;;;;;5.87;1.70;;;;;;;;;;5089012;28;20637;-69
2021/04/05 08:16:16;;;;;;;8.13;2.17;;;;;;;;;;5091379;28;20175;-69
2021/04/05 08:18:46;;;;;;;4.97;1.87;;;;;;;;;;5083831;28;20203;-69
2021/04/05 08:21:23;;;;;;;7.80;1.60;;;;;;;;;;5089116;28;20194;-69
2021/04/05 08:23:54;;;;;;;8.40;1.70;;;;;;;;;;5093036;28;20225;-69
2021/04/05 08:26:45;;;;;;;4.50;1.70;;;;;;;;;;5088288;28;20183;-69
2021/04/05 08:29:28;;;;;;;5.53;1.77;;;;;;;;;;5077111;28;20188;-69
2021/04/05 08:32:13;;;;;;;5.87;1.40;;;;;;;;;;5091378;28;20288;-69
2021/04/05 08:35:02;;;;;;;8.53;2.30;;;;;;;;;;5090808;28;20802;-69
2021/04/05 08:37:51;;;;;;;3.80;1.30;;;;;;;;;;5090708;28;20806;-68
2021/04/05 08:40:16;;;;;;;3.97;1.17;;;;;;;;;;5086250;28;20201;-69
2021/04/05 08:42:53;;;;;;;4.60;0.95;;;;;;;;;;5090549;28;20173;-70
2021/04/05 08:45:20;;;;;;;6.50;0.97;;;;;;;;;;5084071;28;20180;-69
2021/04/05 08:47:53;;;;;;;9.43;1.87;;;;;;;;;;5090125;28;20250;-69
2021/04/05 08:50:20;;;;;;;3.97;1.17;;;;;;;;;;5090291;28;20196;-69
2021/04/05 08:52:45;;;;;;;2.47;1.10;;;;;;;;;;5086020;28;20259;-68
2021/04/05 08:55:12;;;;;;;2.10;0.90;;;;;;;;;;5084779;28;20255;-68
2021/04/05 08:57:50;;;;;;;3.17;0.70;;;;;;;;;;5091857;28;20280;-68
2021/04/05 09:00:16;;;;;;;2.50;0.80;;;;;;;;;;5092416;28;20280;-68
2021/04/05 09:03:10;;;;;;;3.97;1.10;;;;;;;;;;5083860;28;20291;-68
2021/04/05 09:05:40;;;;;;;5.47;0.80;;;;;;;;;;5083246;28;20185;-68
2021/04/05 09:08:09;;;;;;;1.70;0.70;;;;;;;;;;5084498;28;20680;-68
2021/04/05 09:10:47;;;;;;;2.00;0.77;;;;;;;;;;5089773;28;20274;-68
2021/04/05 09:13:16;;;;;;;3.63;0.90;;;;;;;;;;5087549;28;20182;-67
2021/04/05 09:16:00;;;;;;;1.20;0.60;;;;;;;;;;5081183;28;20168;-68
2021/04/05 09:18:43;;;;;;;6.33;1.00;;;;;;;;;;5087102;28;20231;-69
2021/04/05 09:21:22;;;;;;;6.63;1.30;;;;;;;;;;5085046;28;20232;-68
2021/04/05 09:23:50;;;;;;;6.47;1.10;;;;;;;;;;5089966;28;20529;-68
2021/04/05 09:26:34;;;;;;;2.60;1.03;;;;;;;;;;5081527;28;20196;-69
2021/04/05 09:28:59;;;;;;;3.03;1.00;;;;;;;;;;5089146;28;20172;-68
2021/04/05 09:31:34;;;;;;;7.35;1.20;;;;;;;;;;5083552;28;20543;-65
2021/04/05 09:34:11;;;;;;;7.00;1.33;;;;;;;;;;5090420;28;20226;-68
2021/04/05 09:36:45;;;;;;;5.80;2.80;;;;;;;;;;5084990;28;20180;-68
2021/04/05 09:39:27;;;;;;;4.07;1.67;;;;;;;;;;5074265;28;20199;-70
2021/04/05 09:42:01;;;;;;;4.60;1.67;;;;;;;;;;5078837;28;20209;-70
2021/04/05 09:44:38;;;;;;;7.37;1.70;;;;;;;;;;5081835;28;20192;-70
2021/04/05 09:47:12;;;;;;;9.80;1.37;;;;;;;;;;5087162;28;20554;-69
2021/04/05 09:49:56;;;;;;;7.23;2.10;;;;;;;;;;5083270;28;20168;-68
2021/04/05 09:52:27;;;;;;;14.27;2.90;;;;;;;;;;5078598;28;20505;-67
2021/04/05 09:54:54;;;;;;;9.90;2.27;;;;;;;;;;5088769;28;20187;-68
2021/04/05 09:57:32;;;;;;;6.87;1.90;;;;;;;;;;5088075;28;20176;-68
2021/04/05 09:59:58;;;;;;;5.17;1.77;;;;;;;;;;5082763;28;20196;-69
2021/04/05 10:02:35;;;;;;;8.20;2.50;;;;;;;;;;5083000;28;20664;-68
2021/04/05 10:05:01;;;;;;;17.60;2.43;;;;;;;;;;5078735;28;20173;-69
2021/04/05 10:07:26;;;;;;;8.77;2.30;;;;;;;;;;5078947;28;20194;-68
2021/04/05 10:09:52;;;;;;;9.13;2.30;;;;;;;;;;5085150;28;20670;-67
2021/04/05 10:12:20;;;;;;;7.57;1.87;;;;;;;;;;5080298;28;20638;-67
2021/04/05 10:14:45;;;;;;;15.83;3.37;;;;;;;;;;5080926;28;20255;-68
2021/04/05 10:17:11;;;;;;;6.63;2.07;;;;;;;;;;5083989;28;20714;-68
2021/04/05 10:19:40;;;;;;;8.57;1.47;;;;;;;;;;5082699;28;20168;-67
2021/04/05 10:22:15;;;;;;;9.87;1.90;;;;;;;;;;5082890;28;20186;-68
2021/04/05 10:24:41;;;;;;;7.30;1.40;;;;;;;;;;5078398;28;20641;-68
2021/04/05 10:27:07;;;;;;;11.97;2.13;;;;;;;;;;5089522;28;20255;-67
2021/04/05 10:29:34;;;;;;;11.60;1.63;;;;;;;;;;5084160;28;20603;-68
2021/04/05 10:32:04;;;;;;;10.27;1.83;;;;;;;;;;5084397;28;20196;-67
2021/04/05 10:34:32;;;;;;;9.87;2.33;;;;;;;;;;5078590;28;20212;-68
2021/04/05 10:37:00;;;;;;;7.93;2.50;;;;;;;;;;5081098;28;20183;-68
2021/04/05 10:39:26;;;;;;;7.30;2.03;;;;;;;;;;5087365;28;20211;-68
2021/04/05 10:41:57;;;;;;;7.27;1.70;;;;;;;;;;5083046;28;21241;-71
2021/04/05 10:44:23;;;;;;;6.77;2.80;;;;;;;;;;5076236;28;20176;-69
2021/04/05 10:46:53;;;;;;;5.13;1.50;;;;;;;;;;5074308;28;20678;-69
2021/04/05 10:49:23;;;;;;;3.27;1.20;;;;;;;;;;5084315;28;20176;-69
2021/04/05 10:51:51;;;;;;;13.97;2.43;;;;;;;;;;5084031;28;20207;-68
2021/04/05 10:54:27;;;;;;;10.47;2.77;;;;;;;;;;5089198;28;20817;-69
2021/04/05 10:57:12;;;;;;;4.77;1.33;;;;;;;;;;5091082;28;20176;-69
2021/04/05 10:59:49;;;;;;;2.13;0.80;;;;;;;;;;5086346;28;20180;-68
2021/04/05 11:02:14;;;;;;;5.30;1.57;;;;;;;;;;5084155;28;20175;-69
2021/04/05 11:04:40;;;;;;;2.28;1.20;;;;;;;;;;5079602;28;20169;-68
2021/04/05 11:07:06;;;;;;;6.83;1.00;;;;;;;;;;5084683;28;20275;-68
2021/04/05 11:09:37;;;;;;;3.70;1.00;;;;;;;;;;5082443;28;20263;-68
2021/04/05 11:12:03;;;;;;;3.50;1.23;;;;;;;;;;5086134;28;20224;-68
2021/04/05 11:14:28;;;;;;;6.20;1.80;;;;;;;;;;5085063;28;20215;-68
2021/04/05 11:16:56;;;;;;;6.73;2.63;;;;;;;;;;5087899;28;20176;-69
2021/04/05 11:19:31;;;;;;;5.10;1.23;;;;;;;;;;5087783;28;20277;-70
2021/04/05 11:21:58;;;;;;;8.37;1.10;;;;;;;;;;5083600;28;20192;-69
2021/04/05 11:24:27;;;;;;;5.43;1.27;;;;;;;;;;5089192;28;20280;-69
2021/04/05 11:26:54;;;;;;;3.77;1.67;;;;;;;;;;5079693;28;20173;-68
2021/04/05 11:29:21;;;;;;;6.73;1.40;;;;;;;;;;5084964;28;20256;-68
2021/04/05 11:31:48;;;;;;;4.60;1.03;;;;;;;;;;5086482;28;20209;-69
2021/04/05 11:34:14;;;;;;;4.27;1.47;;;;;;;;;;5083178;28;20232;-68
2021/04/05 11:36:39;;;;;;;7.63;1.30;;;;;;;;;;5087058;28;20191;-69
2021/04/05 11:39:06;;;;;;;4.63;1.10;;;;;;;;;;5082175;28;20205;-69
2021/04/05 11:41:32;;;;;;;6.00;1.43;;;;;;;;;;5080582;28;20296;-68
2021/04/05 11:43:59;;;;;;;9.37;1.40;;;;;;;;;;5076658;28;20264;-69
2021/04/05 11:46:35;;;;;;;3.50;0.80;;;;;;;;;;5078103;28;20183;-68
2021/04/05 11:49:11;;;;;;;5.60;0.90;;;;;;;;;;5086126;28;20172;-70
2021/04/05 11:51:39;;;;;;;6.40;1.17;;;;;;;;;;5084996;28;20195;-67
2021/04/05 11:54:05;;;;;;;3.00;0.80;;;;;;;;;;5082878;28;20176;-68
2021/04/05 11:56:32;;;;;;;4.53;1.30;;;;;;;;;;5083976;28;20184;-69
2021/04/05 11:59:12;;;;;;;6.50;1.50;;;;;;;;;;5080716;28;20686;-67
2021/04/05 12:01:45;;;;;;;6.70;1.43;;;;;;;;;;5083904;28;20753;-69
2021/04/05 12:04:25;;;;;;;9.53;1.87;;;;;;;;;;5081220;28;20649;-68
2021/04/05 12:07:04;;;;;;;7.27;1.33;;;;;;;;;;5082224;28;20177;-69
2021/04/05 12:09:44;;;;;;;8.10;2.33;;;;;;;;;;5086617;28;20225;-68
2021/04/05 12:12:15;;;;;;;3.73;1.27;;;;;;;;;;5089430;28;20202;-68
2021/04/05 12:14:41;;;;;;;3.50;1.00;;;;;;;;;;5080271;28;20180;-68
2021/04/05 12:17:06;;;;;;;5.40;1.20;;;;;;;;;;5076611;28;20191;-67
2021/04/05 12:19:37;;;;;;;6.73;1.07;;;;;;;;;;5078469;28;20239;-68
2021/04/05 12:22:03;;;;;;;4.67;1.00;;;;;;;;;;5078652;28;20895;-68
2021/04/05 12:24:35;;;;;;;4.77;1.00;;;;;;;;;;5091013;28;20187;-68
2021/04/05 12:27:03;;;;;;;2.43;0.63;;;;;;;;;;5083745;28;20176;-68
2021/04/05 12:29:28;;;;;;;3.07;0.77;;;;;;;;;;5082500;28;20181;-69
2021/04/05 12:31:55;;;;;;;2.77;1.00;;;;;;;;;;5083924;28;20741;-69
2021/04/05 12:34:20;;;;;;;2.37;0.80;;;;;;;;;;5080212;28;20646;-68
2021/04/05 12:36:46;;;;;;;3.23;1.10;;;;;;;;;;5083151;28;20234;-69
2021/04/05 12:39:12;;;;;;;3.27;1.10;;;;;;;;;;5080509;28;20207;-69
2021/04/05 12:41:42;;;;;;;3.17;0.90;;;;;;;;;;5083839;28;20196;-69
2021/04/05 12:44:13;;;;;;;3.67;1.20;;;;;;;;;;5090879;28;20191;-69
2021/04/05 12:46:40;;;;;;;1.57;0.73;;;;;;;;;;5086020;28;20180;-68
2021/04/05 12:49:05;;;;;;;3.17;0.90;;;;;;;;;;5084293;28;20840;-69
2021/04/05 12:51:30;;;;;;;9.40;1.27;;;;;;;;;;5086148;28;20212;-69
2021/04/05 12:54:00;;;;;;;7.23;1.00;;;;;;;;;;5082553;28;20184;-69
2021/04/05 12:56:26;;;;;;;3.10;0.90;;;;;;;;;;5082226;28;20181;-68
2021/04/05 12:58:53;;;;;;;2.53;0.80;;;;;;;;;;5089026;28;20786;-68
2021/04/05 13:01:23;;;;;;;3.57;1.03;;;;;;;;;;5083067;28;20701;-69
2021/04/05 13:03:50;;;;;;;4.97;0.73;;;;;;;;;;5088797;28;20184;-69
2021/04/05 13:06:21;;;;;;;3.47;0.90;;;;;;;;;;5083099;28;20188;-69
2021/04/05 13:09:09;;;;;;;8.17;2.70;;;;;;;;;;5085202;28;20546;-69
2021/04/05 13:11:54;;;;;;;4.33;1.13;;;;;;;;;;5076367;28;20287;-69
2021/04/05 13:14:27;;;;;;;3.90;1.13;;;;;;;;;;5078709;28;20259;-68
2021/04/05 13:17:12;;;;;;;4.47;1.13;;;;;;;;;;5083221;28;20329;-68
2021/04/05 13:19:58;;;;;;;4.60;1.43;;;;;;;;;;5079063;28;20201;-69
2021/04/05 13:22:26;;;;;;;3.87;1.33;;;;;;;;;;5075819;28;20193;-69
2021/04/05 13:25:03;;;;;;;5.50;1.30;;;;;;;;;;5083536;28;20673;-68
2021/04/05 13:27:29;;;;;;;1.97;1.10;;;;;;;;;;5080013;28;20252;-68
2021/04/05 13:29:56;;;;;;;3.50;1.00;;;;;;;;;;5082990;28;20260;-70
2021/04/05 13:32:31;;;;;;;6.77;1.07;;;;;;;;;;5085579;28;20187;-68
2021/04/05 13:35:01;;;;;;;5.30;1.27;;;;;;;;;;5074106;28;20189;-68
2021/04/05 13:37:26;;;;;;;1.87;0.50;;;;;;;;;;5077708;28;20179;-68
2021/04/05 13:39:53;;;;;;;2.13;0.60;;;;;;;;;;5085493;28;20211;-67
2021/04/05 13:42:21;;;;;;;1.70;1.33;;;;;;;;;;5078243;28;20260;-68
2021/04/05 13:44:49;;;;;;;3.13;0.80;;;;;;;;;;5078965;28;20208;-70
2021/04/05 13:47:14;;;;;;;2.37;0.47;;;;;;;;;;5083814;28;20287;-69
2021/04/05 13:49:54;;;;;;;0.90;0.43;;;;;;;;;;5082587;28;20681;-70
2021/04/05 13:52:20;;;;;;;1.43;0.50;;;;;;;;;;5082690;28;20260;-69
2021/04/05 13:54:49;;;;;;;5.90;0.83;;;;;;;;;;5074281;28;20180;-69
2021/04/05 13:57:15;;;;;;;1.20;0.70;;;;;;;;;;5085884;28;20229;-70
2021/04/05 13:59:40;;;;;;;1.90;0.70;;;;;;;;;;5076895;28;20677;-69
2021/04/05 14:02:06;;;;;;;6.30;1.50;;;;;;;;;;5081383;28;20243;-69
2021/04/05 14:04:42;;;;;;;1.90;0.57;;;;;;;;;;5081247;28;20688;-68
2021/04/05 14:07:08;;;;;;;1.50;0.70;;;;;;;;;;5081054;28;20242;-70
2021/04/05 14:09:34;;;;;;;6.00;2.10;;;;;;;;;;5079611;28;20629;-69
2021/04/05 14:12:03;;;;;;;7.20;0.93;;;;;;;;;;5081157;28;20204;-70
2021/04/05 14:14:29;;;;;;;3.90;0.97;;;;;;;;;;5079238;28;20689;-69
2021/04/05 14:17:01;;;;;;;3.33;1.00;;;;;;;;;;5079960;28;20267;-71
2021/04/05 14:19:34;;;;;;;4.10;1.00;;;;;;;;;;5088535;28;20196;-67
2021/04/05 14:22:00;;;;;;;3.33;1.20;;;;;;;;;;5083050;28;20227;-71
2021/04/05 14:24:27;;;;;;;4.10;1.30;;;;;;;;;;5083075;28;20524;-67
2021/04/05 14:26:54;;;;;;;2.73;0.90;;;;;;;;;;5080056;28;20188;-67
2021/04/05 14:29:21;;;;;;;6.70;1.20;;;;;;;;;;5080043;28;20184;-70
2021/04/05 14:31:49;;;;;;;2.37;1.03;;;;;;;;;;5078025;28;20246;-67
2021/04/05 14:34:19;;;;;;;5.67;1.33;;;;;;;;;;5080933;28;20283;-68
2021/04/05 14:36:50;;;;;;;2.53;1.40;;;;;;;;;;5081851;28;20217;-69
2021/04/05 14:39:21;;;;;;;9.07;3.37;;;;;;;;;;5083324;28;20263;-70
2021/04/05 14:41:51;;;;;;;3.40;1.20;;;;;;;;;;5078010;28;20255;-67
2021/04/05 14:44:17;;;;;;;3.80;1.10;;;;;;;;;;5074431;28;20528;-67
2021/04/05 14:46:45;;;;;;;7.47;1.23;;;;;;;;;;5072338;28;20188;-68
2021/04/05 14:49:14;;;;;;;4.37;1.40;;;;;;;;;;5079990;28;20184;-67
2021/04/05 14:51:41;;;;;;;5.57;1.10;;;;;;;;;;5084580;28;20207;-67
2021/04/05 14:54:07;;;;;;;6.20;2.23;;;;;;;;;;5076737;28;20597;-68